sensor_id;sensor_type;location;lat;lon;timestamp;P1;durP1;ratioP1;P2;durP2;ratioP2
76850;SDS011;65824;43.726;20.692;2023-11-21T00:00:15;62.97;;;31.58;;
76850;SDS011;65824;43.726;20.692;2023-11-21T00:02:41;55.95;;;28.10;;
76850;SDS011;65824;43.726;20.692;2023-11-21T00:05:08;50.67;;;26.55;;
76850;SDS011;65824;43.726;20.692;2023-11-21T00:07:34;48.58;;;26.05;;
76850;SDS011;65824;43.726;20.692;2023-11-21T00:10:02;47.90;;;24.55;;
76850;SDS011;65824;43.726;20.692;2023-11-21T00:12:30;41.88;;;22.55;;
76850;SDS011;65824;43.726;20.692;2023-11-21T00:14:56;42.33;;;22.70;;
76850;SDS011;65824;43.726;20.692;2023-11-21T00:17:23;40.08;;;21.20;;
76850;SDS011;65824;43.726;20.692;2023-11-21T00:19:48;38.95;;;20.17;;
76850;SDS011;65824;43.726;20.692;2023-11-21T00:22:13;39.05;;;19.95;;
76850;SDS011;65824;43.726;20.692;2023-11-21T00:24:41;42.50;;;21.00;;
76850;SDS011;65824;43.726;20.692;2023-11-21T00:27:06;36.38;;;20.42;;
76850;SDS011;65824;43.726;20.692;2023-11-21T00:29:31;38.45;;;20.63;;
76850;SDS011;65824;43.726;20.692;2023-11-21T00:31:57;39.25;;;20.98;;
76850;SDS011;65824;43.726;20.692;2023-11-21T00:34:23;39.38;;;20.67;;
76850;SDS011;65824;43.726;20.692;2023-11-21T00:36:49;43.22;;;20.80;;
76850;SDS011;65824;43.726;20.692;2023-11-21T00:39:15;38.25;;;20.23;;
76850;SDS011;65824;43.726;20.692;2023-11-21T00:41:40;35.75;;;20.95;;
76850;SDS011;65824;43.726;20.692;2023-11-21T00:44:07;41.08;;;20.10;;
76850;SDS011;65824;43.726;20.692;2023-11-21T00:46:32;37.70;;;20.50;;
76850;SDS011;65824;43.726;20.692;2023-11-21T00:48:58;33.50;;;19.48;;
76850;SDS011;65824;43.726;20.692;2023-11-21T00:51:23;33.33;;;19.17;;
76850;SDS011;65824;43.726;20.692;2023-11-21T00:53:49;35.45;;;19.48;;
76850;SDS011;65824;43.726;20.692;2023-11-21T00:56:15;36.10;;;19.25;;
76850;SDS011;65824;43.726;20.692;2023-11-21T00:58:42;42.75;;;23.40;;
76850;SDS011;65824;43.726;20.692;2023-11-21T01:01:09;47.92;;;25.38;;
76850;SDS011;65824;43.726;20.692;2023-11-21T01:03:34;50.08;;;24.38;;
76850;SDS011;65824;43.726;20.692;2023-11-21T01:06:01;47.95;;;25.48;;
76850;SDS011;65824;43.726;20.692;2023-11-21T01:08:27;46.00;;;23.40;;
76850;SDS011;65824;43.726;20.692;2023-11-21T01:10:53;48.50;;;22.63;;
76850;SDS011;65824;43.726;20.692;2023-11-21T01:13:19;47.58;;;25.58;;
76850;SDS011;65824;43.726;20.692;2023-11-21T01:15:45;56.67;;;29.33;;
76850;SDS011;65824;43.726;20.692;2023-11-21T01:18:12;57.33;;;31.52;;
76850;SDS011;65824;43.726;20.692;2023-11-21T01:20:37;60.95;;;30.00;;
76850;SDS011;65824;43.726;20.692;2023-11-21T01:23:03;62.20;;;32.03;;
76850;SDS011;65824;43.726;20.692;2023-11-21T01:25:28;62.88;;;33.08;;
76850;SDS011;65824;43.726;20.692;2023-11-21T01:27:54;63.60;;;32.45;;
76850;SDS011;65824;43.726;20.692;2023-11-21T01:30:19;63.70;;;32.67;;
76850;SDS011;65824;43.726;20.692;2023-11-21T01:32:45;68.18;;;34.55;;
76850;SDS011;65824;43.726;20.692;2023-11-21T01:35:10;64.15;;;33.40;;
76850;SDS011;65824;43.726;20.692;2023-11-21T01:37:36;67.20;;;34.58;;
76850;SDS011;65824;43.726;20.692;2023-11-21T01:40:03;63.30;;;31.67;;
76850;SDS011;65824;43.726;20.692;2023-11-21T01:42:33;63.08;;;33.25;;
76850;SDS011;65824;43.726;20.692;2023-11-21T01:44:59;63.72;;;31.98;;
76850;SDS011;65824;43.726;20.692;2023-11-21T01:47:25;55.72;;;29.73;;
76850;SDS011;65824;43.726;20.692;2023-11-21T01:49:50;57.38;;;28.80;;
76850;SDS011;65824;43.726;20.692;2023-11-21T01:52:16;59.13;;;30.25;;
76850;SDS011;65824;43.726;20.692;2023-11-21T01:54:43;58.65;;;30.25;;
76850;SDS011;65824;43.726;20.692;2023-11-21T01:57:09;57.13;;;29.95;;
76850;SDS011;65824;43.726;20.692;2023-11-21T01:59:36;61.85;;;30.60;;
76850;SDS011;65824;43.726;20.692;2023-11-21T02:02:06;60.08;;;29.55;;
76850;SDS011;65824;43.726;20.692;2023-11-21T02:04:34;52.00;;;27.70;;
76850;SDS011;65824;43.726;20.692;2023-11-21T02:07:01;62.25;;;29.30;;
76850;SDS011;65824;43.726;20.692;2023-11-21T02:09:28;60.00;;;28.77;;
76850;SDS011;65824;43.726;20.692;2023-11-21T02:11:56;57.53;;;27.85;;
76850;SDS011;65824;43.726;20.692;2023-11-21T02:14:26;59.88;;;28.92;;
76850;SDS011;65824;43.726;20.692;2023-11-21T02:16:52;56.65;;;29.15;;
76850;SDS011;65824;43.726;20.692;2023-11-21T02:19:19;57.22;;;28.45;;
76850;SDS011;65824;43.726;20.692;2023-11-21T02:21:52;48.00;;;26.23;;
76850;SDS011;65824;43.726;20.692;2023-11-21T02:24:22;49.63;;;27.13;;
76850;SDS011;65824;43.726;20.692;2023-11-21T02:26:48;51.92;;;27.27;;
76850;SDS011;65824;43.726;20.692;2023-11-21T02:29:16;52.45;;;25.75;;
76850;SDS011;65824;43.726;20.692;2023-11-21T02:31:43;58.85;;;26.63;;
76850;SDS011;65824;43.726;20.692;2023-11-21T02:34:16;49.13;;;25.60;;
76850;SDS011;65824;43.726;20.692;2023-11-21T02:36:45;51.55;;;25.95;;
76850;SDS011;65824;43.726;20.692;2023-11-21T02:39:12;51.60;;;26.67;;
76850;SDS011;65824;43.726;20.692;2023-11-21T02:41:38;51.63;;;24.63;;
76850;SDS011;65824;43.726;20.692;2023-11-21T02:44:04;46.72;;;24.55;;
76850;SDS011;65824;43.726;20.692;2023-11-21T02:46:34;46.40;;;24.95;;
76850;SDS011;65824;43.726;20.692;2023-11-21T02:49:03;49.50;;;24.35;;
76850;SDS011;65824;43.726;20.692;2023-11-21T02:51:31;50.70;;;25.13;;
76850;SDS011;65824;43.726;20.692;2023-11-21T02:53:56;45.60;;;23.80;;
76850;SDS011;65824;43.726;20.692;2023-11-21T02:56:25;43.78;;;24.27;;
76850;SDS011;65824;43.726;20.692;2023-11-21T02:58:57;47.15;;;24.92;;
76850;SDS011;65824;43.726;20.692;2023-11-21T03:01:22;50.15;;;24.88;;
76850;SDS011;65824;43.726;20.692;2023-11-21T03:03:51;46.85;;;24.30;;
76850;SDS011;65824;43.726;20.692;2023-11-21T03:06:20;47.97;;;23.88;;
76850;SDS011;65824;43.726;20.692;2023-11-21T03:08:47;44.00;;;23.85;;
76850;SDS011;65824;43.726;20.692;2023-11-21T03:11:13;44.05;;;24.20;;
76850;SDS011;65824;43.726;20.692;2023-11-21T03:13:39;49.13;;;25.27;;
76850;SDS011;65824;43.726;20.692;2023-11-21T03:16:10;48.80;;;24.65;;
76850;SDS011;65824;43.726;20.692;2023-11-21T03:18:54;44.80;;;24.92;;
76850;SDS011;65824;43.726;20.692;2023-11-21T03:21:24;46.20;;;24.38;;
76850;SDS011;65824;43.726;20.692;2023-11-21T03:23:50;46.08;;;26.55;;
76850;SDS011;65824;43.726;20.692;2023-11-21T03:26:15;46.38;;;24.23;;
76850;SDS011;65824;43.726;20.692;2023-11-21T03:28:41;48.80;;;25.02;;
76850;SDS011;65824;43.726;20.692;2023-11-21T03:31:07;51.28;;;25.05;;
76850;SDS011;65824;43.726;20.692;2023-11-21T03:33:34;55.63;;;27.27;;
76850;SDS011;65824;43.726;20.692;2023-11-21T03:36:00;52.28;;;28.55;;
76850;SDS011;65824;43.726;20.692;2023-11-21T03:38:26;57.55;;;28.67;;
76850;SDS011;65824;43.726;20.692;2023-11-21T03:40:51;58.17;;;29.88;;
76850;SDS011;65824;43.726;20.692;2023-11-21T03:43:16;57.67;;;29.17;;
76850;SDS011;65824;43.726;20.692;2023-11-21T03:45:43;60.63;;;28.25;;
76850;SDS011;65824;43.726;20.692;2023-11-21T03:48:09;55.55;;;28.08;;
76850;SDS011;65824;43.726;20.692;2023-11-21T03:50:37;55.13;;;27.73;;
76850;SDS011;65824;43.726;20.692;2023-11-21T03:53:03;58.97;;;28.80;;
76850;SDS011;65824;43.726;20.692;2023-11-21T03:55:30;55.85;;;28.27;;
76850;SDS011;65824;43.726;20.692;2023-11-21T03:57:57;60.08;;;28.65;;
76850;SDS011;65824;43.726;20.692;2023-11-21T04:00:23;52.42;;;26.88;;
76850;SDS011;65824;43.726;20.692;2023-11-21T04:02:49;46.65;;;24.08;;
76850;SDS011;65824;43.726;20.692;2023-11-21T04:05:16;64.88;;;32.22;;
76850;SDS011;65824;43.726;20.692;2023-11-21T04:07:42;59.30;;;30.00;;
76850;SDS011;65824;43.726;20.692;2023-11-21T04:10:08;64.40;;;31.15;;
76850;SDS011;65824;43.726;20.692;2023-11-21T04:12:37;64.93;;;30.45;;
76850;SDS011;65824;43.726;20.692;2023-11-21T04:15:03;57.40;;;28.83;;
76850;SDS011;65824;43.726;20.692;2023-11-21T04:17:29;54.20;;;28.83;;
76850;SDS011;65824;43.726;20.692;2023-11-21T04:19:54;50.65;;;27.35;;
76850;SDS011;65824;43.726;20.692;2023-11-21T04:22:20;50.15;;;25.10;;
76850;SDS011;65824;43.726;20.692;2023-11-21T04:24:46;48.78;;;26.27;;
76850;SDS011;65824;43.726;20.692;2023-11-21T04:27:11;48.22;;;27.02;;
76850;SDS011;65824;43.726;20.692;2023-11-21T04:29:39;45.90;;;25.45;;
76850;SDS011;65824;43.726;20.692;2023-11-21T04:32:06;48.50;;;25.17;;
76850;SDS011;65824;43.726;20.692;2023-11-21T04:34:31;49.00;;;27.02;;
76850;SDS011;65824;43.726;20.692;2023-11-21T04:36:57;46.58;;;25.88;;
76850;SDS011;65824;43.726;20.692;2023-11-21T04:39:22;47.05;;;25.98;;
76850;SDS011;65824;43.726;20.692;2023-11-21T04:41:50;52.22;;;25.52;;
76850;SDS011;65824;43.726;20.692;2023-11-21T04:44:15;47.83;;;28.13;;
76850;SDS011;65824;43.726;20.692;2023-11-21T04:46:42;52.20;;;27.40;;
76850;SDS011;65824;43.726;20.692;2023-11-21T04:49:08;59.00;;;27.92;;
76850;SDS011;65824;43.726;20.692;2023-11-21T04:51:34;55.17;;;27.17;;
76850;SDS011;65824;43.726;20.692;2023-11-21T04:53:59;55.13;;;28.15;;
76850;SDS011;65824;43.726;20.692;2023-11-21T04:56:25;54.30;;;26.05;;
76850;SDS011;65824;43.726;20.692;2023-11-21T04:58:51;49.35;;;27.30;;
76850;SDS011;65824;43.726;20.692;2023-11-21T05:01:16;51.58;;;27.15;;
76850;SDS011;65824;43.726;20.692;2023-11-21T05:03:42;46.05;;;24.73;;
76850;SDS011;65824;43.726;20.692;2023-11-21T05:06:09;49.58;;;25.70;;
76850;SDS011;65824;43.726;20.692;2023-11-21T05:08:35;57.17;;;28.33;;
76850;SDS011;65824;43.726;20.692;2023-11-21T05:11:02;57.47;;;27.15;;
76850;SDS011;65824;43.726;20.692;2023-11-21T05:13:27;53.90;;;26.95;;
76850;SDS011;65824;43.726;20.692;2023-11-21T05:15:56;52.08;;;26.83;;
76850;SDS011;65824;43.726;20.692;2023-11-21T05:18:24;58.13;;;28.63;;
76850;SDS011;65824;43.726;20.692;2023-11-21T05:20:52;58.33;;;26.50;;
76850;SDS011;65824;43.726;20.692;2023-11-21T05:23:18;53.88;;;27.48;;
76850;SDS011;65824;43.726;20.692;2023-11-21T05:25:44;50.58;;;25.50;;
76850;SDS011;65824;43.726;20.692;2023-11-21T05:28:11;49.92;;;25.00;;
76850;SDS011;65824;43.726;20.692;2023-11-21T05:30:38;53.80;;;25.50;;
76850;SDS011;65824;43.726;20.692;2023-11-21T05:33:04;51.22;;;25.55;;
76850;SDS011;65824;43.726;20.692;2023-11-21T05:35:31;50.90;;;24.88;;
76850;SDS011;65824;43.726;20.692;2023-11-21T05:37:57;58.05;;;28.35;;
76850;SDS011;65824;43.726;20.692;2023-11-21T05:40:22;57.88;;;29.15;;
76850;SDS011;65824;43.726;20.692;2023-11-21T05:42:48;55.35;;;28.42;;
76850;SDS011;65824;43.726;20.692;2023-11-21T05:45:14;55.67;;;29.65;;
76850;SDS011;65824;43.726;20.692;2023-11-21T05:47:43;54.47;;;28.38;;
76850;SDS011;65824;43.726;20.692;2023-11-21T05:50:11;57.45;;;30.23;;
76850;SDS011;65824;43.726;20.692;2023-11-21T05:52:39;70.72;;;35.25;;
76850;SDS011;65824;43.726;20.692;2023-11-21T05:55:09;78.88;;;37.55;;
76850;SDS011;65824;43.726;20.692;2023-11-21T05:57:35;72.35;;;37.63;;
76850;SDS011;65824;43.726;20.692;2023-11-21T06:00:02;60.47;;;32.38;;
76850;SDS011;65824;43.726;20.692;2023-11-21T06:02:40;57.05;;;29.77;;
76850;SDS011;65824;43.726;20.692;2023-11-21T06:05:06;59.08;;;30.35;;
76850;SDS011;65824;43.726;20.692;2023-11-21T06:07:32;76.25;;;36.50;;
76850;SDS011;65824;43.726;20.692;2023-11-21T06:09:58;57.55;;;30.10;;
76850;SDS011;65824;43.726;20.692;2023-11-21T06:12:24;64.28;;;34.13;;
76850;SDS011;65824;43.726;20.692;2023-11-21T06:14:50;65.22;;;34.17;;
76850;SDS011;65824;43.726;20.692;2023-11-21T06:17:16;70.28;;;34.55;;
76850;SDS011;65824;43.726;20.692;2023-11-21T06:19:44;68.57;;;36.72;;
76850;SDS011;65824;43.726;20.692;2023-11-21T06:22:11;78.20;;;38.60;;
76850;SDS011;65824;43.726;20.692;2023-11-21T06:24:36;91.85;;;45.85;;
76850;SDS011;65824;43.726;20.692;2023-11-21T06:27:03;94.40;;;45.72;;
76850;SDS011;65824;43.726;20.692;2023-11-21T06:29:30;93.55;;;46.58;;
76850;SDS011;65824;43.726;20.692;2023-11-21T06:31:57;79.95;;;40.13;;
76850;SDS011;65824;43.726;20.692;2023-11-21T06:34:23;84.43;;;43.92;;
76850;SDS011;65824;43.726;20.692;2023-11-21T06:36:52;74.18;;;38.53;;
76850;SDS011;65824;43.726;20.692;2023-11-21T06:39:17;64.93;;;35.17;;
76850;SDS011;65824;43.726;20.692;2023-11-21T06:41:43;57.38;;;30.65;;
76850;SDS011;65824;43.726;20.692;2023-11-21T06:44:08;58.75;;;31.60;;
76850;SDS011;65824;43.726;20.692;2023-11-21T06:46:37;54.55;;;29.95;;
76850;SDS011;65824;43.726;20.692;2023-11-21T06:49:07;60.67;;;34.00;;
76850;SDS011;65824;43.726;20.692;2023-11-21T06:51:32;59.28;;;30.65;;
76850;SDS011;65824;43.726;20.692;2023-11-21T06:53:58;56.95;;;30.67;;
76850;SDS011;65824;43.726;20.692;2023-11-21T06:56:23;57.20;;;31.00;;
76850;SDS011;65824;43.726;20.692;2023-11-21T06:58:49;70.70;;;36.92;;
76850;SDS011;65824;43.726;20.692;2023-11-21T07:01:15;88.25;;;45.03;;
76850;SDS011;65824;43.726;20.692;2023-11-21T07:03:40;82.35;;;45.30;;
76850;SDS011;65824;43.726;20.692;2023-11-21T07:06:06;91.95;;;45.08;;
76850;SDS011;65824;43.726;20.692;2023-11-21T07:08:32;87.35;;;45.65;;
76850;SDS011;65824;43.726;20.692;2023-11-21T07:10:58;89.40;;;45.63;;
76850;SDS011;65824;43.726;20.692;2023-11-21T07:13:23;86.05;;;43.22;;
76850;SDS011;65824;43.726;20.692;2023-11-21T07:15:51;89.30;;;45.78;;
76850;SDS011;65824;43.726;20.692;2023-11-21T07:18:17;106.40;;;51.63;;
76850;SDS011;65824;43.726;20.692;2023-11-21T07:20:43;101.65;;;51.97;;
76850;SDS011;65824;43.726;20.692;2023-11-21T07:23:08;104.45;;;50.88;;
76850;SDS011;65824;43.726;20.692;2023-11-21T07:25:34;106.80;;;54.95;;
76850;SDS011;65824;43.726;20.692;2023-11-21T07:27:59;104.93;;;53.33;;
76850;SDS011;65824;43.726;20.692;2023-11-21T07:30:25;103.22;;;51.85;;
76850;SDS011;65824;43.726;20.692;2023-11-21T07:32:52;92.13;;;49.47;;
76850;SDS011;65824;43.726;20.692;2023-11-21T07:35:17;92.68;;;45.53;;
76850;SDS011;65824;43.726;20.692;2023-11-21T07:37:42;80.13;;;42.45;;
76850;SDS011;65824;43.726;20.692;2023-11-21T07:40:08;80.03;;;40.38;;
76850;SDS011;65824;43.726;20.692;2023-11-21T07:42:35;72.05;;;38.10;;
76850;SDS011;65824;43.726;20.692;2023-11-21T07:45:01;80.93;;;40.47;;
76850;SDS011;65824;43.726;20.692;2023-11-21T07:47:27;82.05;;;41.95;;
76850;SDS011;65824;43.726;20.692;2023-11-21T07:49:53;68.28;;;38.05;;
76850;SDS011;65824;43.726;20.692;2023-11-21T07:52:21;96.03;;;51.83;;
76850;SDS011;65824;43.726;20.692;2023-11-21T07:54:47;108.57;;;59.33;;
76850;SDS011;65824;43.726;20.692;2023-11-21T07:57:13;93.15;;;48.88;;
76850;SDS011;65824;43.726;20.692;2023-11-21T07:59:39;71.90;;;38.92;;
76850;SDS011;65824;43.726;20.692;2023-11-21T08:02:06;61.95;;;34.40;;
76850;SDS011;65824;43.726;20.692;2023-11-21T08:04:32;62.25;;;33.30;;
76850;SDS011;65824;43.726;20.692;2023-11-21T08:06:57;65.43;;;36.53;;
76850;SDS011;65824;43.726;20.692;2023-11-21T08:09:22;74.80;;;35.95;;
76850;SDS011;65824;43.726;20.692;2023-11-21T08:11:50;65.03;;;32.92;;
76850;SDS011;65824;43.726;20.692;2023-11-21T08:14:18;59.53;;;32.40;;
76850;SDS011;65824;43.726;20.692;2023-11-21T08:16:45;55.50;;;31.50;;
76850;SDS011;65824;43.726;20.692;2023-11-21T08:19:11;54.83;;;31.88;;
76850;SDS011;65824;43.726;20.692;2023-11-21T08:21:36;60.20;;;34.38;;
76850;SDS011;65824;43.726;20.692;2023-11-21T08:24:06;60.72;;;32.30;;
76850;SDS011;65824;43.726;20.692;2023-11-21T08:26:35;55.70;;;29.75;;
76850;SDS011;65824;43.726;20.692;2023-11-21T08:29:01;53.15;;;29.52;;
76850;SDS011;65824;43.726;20.692;2023-11-21T08:31:27;74.53;;;36.17;;
76850;SDS011;65824;43.726;20.692;2023-11-21T08:33:54;72.05;;;39.58;;
76850;SDS011;65824;43.726;20.692;2023-11-21T08:36:23;76.72;;;43.28;;
76850;SDS011;65824;43.726;20.692;2023-11-21T08:38:50;79.10;;;44.08;;
76850;SDS011;65824;43.726;20.692;2023-11-21T08:41:19;88.57;;;47.47;;
76850;SDS011;65824;43.726;20.692;2023-11-21T08:43:51;87.75;;;45.35;;
76850;SDS011;65824;43.726;20.692;2023-11-21T08:46:16;86.07;;;46.72;;
76850;SDS011;65824;43.726;20.692;2023-11-21T08:48:43;84.63;;;43.33;;
76850;SDS011;65824;43.726;20.692;2023-11-21T08:51:10;79.00;;;44.70;;
76850;SDS011;65824;43.726;20.692;2023-11-21T08:53:39;73.38;;;40.30;;
76850;SDS011;65824;43.726;20.692;2023-11-21T08:56:04;74.70;;;39.58;;
76850;SDS011;65824;43.726;20.692;2023-11-21T08:58:31;73.07;;;41.83;;
76850;SDS011;65824;43.726;20.692;2023-11-21T09:00:57;74.63;;;43.13;;
76850;SDS011;65824;43.726;20.692;2023-11-21T09:03:23;76.07;;;42.65;;
76850;SDS011;65824;43.726;20.692;2023-11-21T09:05:49;77.90;;;44.85;;
76850;SDS011;65824;43.726;20.692;2023-11-21T09:08:19;82.53;;;46.60;;
76850;SDS011;65824;43.726;20.692;2023-11-21T09:10:47;84.57;;;45.63;;
76850;SDS011;65824;43.726;20.692;2023-11-21T09:13:13;85.00;;;46.00;;
76850;SDS011;65824;43.726;20.692;2023-11-21T09:15:41;81.22;;;44.25;;
76850;SDS011;65824;43.726;20.692;2023-11-21T09:18:10;78.78;;;41.42;;
76850;SDS011;65824;43.726;20.692;2023-11-21T09:20:36;84.43;;;43.55;;
76850;SDS011;65824;43.726;20.692;2023-11-21T09:23:01;78.05;;;42.67;;
76850;SDS011;65824;43.726;20.692;2023-11-21T09:25:27;79.57;;;43.55;;
76850;SDS011;65824;43.726;20.692;2023-11-21T09:27:53;97.13;;;54.40;;
76850;SDS011;65824;43.726;20.692;2023-11-21T09:30:19;106.78;;;55.92;;
76850;SDS011;65824;43.726;20.692;2023-11-21T09:32:49;110.10;;;59.15;;
76850;SDS011;65824;43.726;20.692;2023-11-21T09:35:15;96.80;;;54.78;;
76850;SDS011;65824;43.726;20.692;2023-11-21T09:37:45;103.22;;;54.58;;
76850;SDS011;65824;43.726;20.692;2023-11-21T09:40:11;94.57;;;52.67;;
76850;SDS011;65824;43.726;20.692;2023-11-21T09:45:28;93.78;;;48.88;;
76850;SDS011;65824;43.726;20.692;2023-11-21T09:47:57;85.40;;;46.35;;
76850;SDS011;65824;43.726;20.692;2023-11-21T09:50:23;83.97;;;46.83;;
76850;SDS011;65824;43.726;20.692;2023-11-21T09:55:20;89.05;;;49.30;;
76850;SDS011;65824;43.726;20.692;2023-11-21T09:57:47;81.43;;;44.55;;
76850;SDS011;65824;43.726;20.692;2023-11-21T10:00:15;76.78;;;44.33;;
76850;SDS011;65824;43.726;20.692;2023-11-21T10:02:43;80.57;;;47.15;;
76850;SDS011;65824;43.726;20.692;2023-11-21T10:05:09;84.50;;;44.05;;
76850;SDS011;65824;43.726;20.692;2023-11-21T10:07:37;88.70;;;46.83;;
76850;SDS011;65824;43.726;20.692;2023-11-21T10:10:05;87.35;;;48.53;;
76850;SDS011;65824;43.726;20.692;2023-11-21T10:12:33;82.93;;;46.65;;
76850;SDS011;65824;43.726;20.692;2023-11-21T10:14:58;86.22;;;49.53;;
76850;SDS011;65824;43.726;20.692;2023-11-21T10:17:25;98.30;;;54.15;;
76850;SDS011;65824;43.726;20.692;2023-11-21T10:19:56;91.63;;;50.33;;
76850;SDS011;65824;43.726;20.692;2023-11-21T10:22:22;78.30;;;45.28;;
76850;SDS011;65824;43.726;20.692;2023-11-21T10:24:48;85.75;;;49.65;;
76850;SDS011;65824;43.726;20.692;2023-11-21T10:27:14;91.38;;;51.78;;
76850;SDS011;65824;43.726;20.692;2023-11-21T10:29:39;95.82;;;53.45;;
76850;SDS011;65824;43.726;20.692;2023-11-21T10:32:06;115.97;;;62.05;;
76850;SDS011;65824;43.726;20.692;2023-11-21T10:34:32;125.15;;;67.32;;
76850;SDS011;65824;43.726;20.692;2023-11-21T10:36:59;121.60;;;64.88;;
76850;SDS011;65824;43.726;20.692;2023-11-21T10:39:38;120.80;;;65.80;;
76850;SDS011;65824;43.726;20.692;2023-11-21T10:42:07;129.32;;;72.32;;
76850;SDS011;65824;43.726;20.692;2023-11-21T10:44:34;105.78;;;57.45;;
76850;SDS011;65824;43.726;20.692;2023-11-21T10:46:59;110.07;;;56.13;;
76850;SDS011;65824;43.726;20.692;2023-11-21T10:49:26;107.80;;;60.35;;
76850;SDS011;65824;43.726;20.692;2023-11-21T10:51:53;104.03;;;56.70;;
76850;SDS011;65824;43.726;20.692;2023-11-21T10:54:22;101.05;;;55.40;;
76850;SDS011;65824;43.726;20.692;2023-11-21T10:56:49;98.82;;;53.42;;
76850;SDS011;65824;43.726;20.692;2023-11-21T10:59:18;102.38;;;56.45;;
76850;SDS011;65824;43.726;20.692;2023-11-21T11:01:46;91.60;;;53.22;;
76850;SDS011;65824;43.726;20.692;2023-11-21T11:04:15;78.57;;;45.88;;
76850;SDS011;65824;43.726;20.692;2023-11-21T11:06:43;85.13;;;47.53;;
76850;SDS011;65824;43.726;20.692;2023-11-21T11:09:10;81.35;;;44.95;;
76850;SDS011;65824;43.726;20.692;2023-11-21T11:11:39;90.63;;;45.97;;
76850;SDS011;65824;43.726;20.692;2023-11-21T11:14:10;79.88;;;43.67;;
76850;SDS011;65824;43.726;20.692;2023-11-21T11:16:37;72.90;;;40.95;;
76850;SDS011;65824;43.726;20.692;2023-11-21T11:19:08;67.13;;;36.70;;
76850;SDS011;65824;43.726;20.692;2023-11-21T11:24:33;59.33;;;32.22;;
76850;SDS011;65824;43.726;20.692;2023-11-21T11:29:44;41.70;;;23.20;;
76850;SDS011;65824;43.726;20.692;2023-11-21T11:35:06;51.25;;;25.45;;
76850;SDS011;65824;43.726;20.692;2023-11-21T11:37:37;53.20;;;29.17;;
76850;SDS011;65824;43.726;20.692;2023-11-21T11:40:05;51.38;;;29.92;;
76850;SDS011;65824;43.726;20.692;2023-11-21T11:42:32;37.45;;;22.20;;
76850;SDS011;65824;43.726;20.692;2023-11-21T11:44:57;42.15;;;24.30;;
76850;SDS011;65824;43.726;20.692;2023-11-21T11:47:27;42.15;;;22.92;;
76850;SDS011;65824;43.726;20.692;2023-11-21T11:50:07;44.00;;;24.55;;
76850;SDS011;65824;43.726;20.692;2023-11-21T11:55:34;45.63;;;25.83;;
76850;SDS011;65824;43.726;20.692;2023-11-21T11:57:59;62.97;;;35.45;;
76850;SDS011;65824;43.726;20.692;2023-11-21T12:02:57;69.10;;;40.67;;
76850;SDS011;65824;43.726;20.692;2023-11-21T12:05:24;72.20;;;40.55;;
76850;SDS011;65824;43.726;20.692;2023-11-21T12:07:54;62.38;;;36.22;;
76850;SDS011;65824;43.726;20.692;2023-11-21T12:10:26;63.45;;;39.20;;
76850;SDS011;65824;43.726;20.692;2023-11-21T12:15:29;57.55;;;32.75;;
76850;SDS011;65824;43.726;20.692;2023-11-21T12:17:56;49.97;;;30.63;;
76850;SDS011;65824;43.726;20.692;2023-11-21T12:20:27;46.10;;;25.95;;
76850;SDS011;65824;43.726;20.692;2023-11-21T12:22:53;37.10;;;22.50;;
76850;SDS011;65824;43.726;20.692;2023-11-21T12:25:21;39.03;;;23.92;;
76850;SDS011;65824;43.726;20.692;2023-11-21T12:27:49;40.25;;;23.58;;
76850;SDS011;65824;43.726;20.692;2023-11-21T12:30:16;35.92;;;21.35;;
76850;SDS011;65824;43.726;20.692;2023-11-21T12:32:50;40.90;;;22.80;;
76850;SDS011;65824;43.726;20.692;2023-11-21T12:35:17;34.90;;;21.70;;
76850;SDS011;65824;43.726;20.692;2023-11-21T12:37:47;43.35;;;23.83;;
76850;SDS011;65824;43.726;20.692;2023-11-21T12:40:13;41.40;;;21.58;;
76850;SDS011;65824;43.726;20.692;2023-11-21T12:42:43;44.03;;;25.05;;
76850;SDS011;65824;43.726;20.692;2023-11-21T12:45:22;32.28;;;20.08;;
76850;SDS011;65824;43.726;20.692;2023-11-21T12:47:51;37.15;;;21.13;;
76850;SDS011;65824;43.726;20.692;2023-11-21T12:50:42;28.60;;;19.13;;
76850;SDS011;65824;43.726;20.692;2023-11-21T12:53:08;40.35;;;22.15;;
76850;SDS011;65824;43.726;20.692;2023-11-21T12:55:37;34.72;;;20.38;;
76850;SDS011;65824;43.726;20.692;2023-11-21T12:58:04;34.47;;;19.83;;
76850;SDS011;65824;43.726;20.692;2023-11-21T13:03:04;35.55;;;20.95;;
76850;SDS011;65824;43.726;20.692;2023-11-21T13:05:32;33.53;;;20.00;;
76850;SDS011;65824;43.726;20.692;2023-11-21T13:07:59;33.47;;;19.95;;
76850;SDS011;65824;43.726;20.692;2023-11-21T13:10:49;36.17;;;20.75;;
76850;SDS011;65824;43.726;20.692;2023-11-21T13:13:17;34.03;;;19.77;;
76850;SDS011;65824;43.726;20.692;2023-11-21T13:18:15;32.33;;;19.83;;
76850;SDS011;65824;43.726;20.692;2023-11-21T13:20:42;40.03;;;21.60;;
76850;SDS011;65824;43.726;20.692;2023-11-21T13:23:10;37.47;;;21.20;;
76850;SDS011;65824;43.726;20.692;2023-11-21T13:25:41;32.15;;;20.00;;
76850;SDS011;65824;43.726;20.692;2023-11-21T13:28:10;35.60;;;20.70;;
76850;SDS011;65824;43.726;20.692;2023-11-21T13:30:36;37.40;;;21.50;;
76850;SDS011;65824;43.726;20.692;2023-11-21T13:33:05;40.03;;;23.02;;
76850;SDS011;65824;43.726;20.692;2023-11-21T13:35:31;36.78;;;21.77;;
76850;SDS011;65824;43.726;20.692;2023-11-21T13:38:04;35.15;;;21.67;;
76850;SDS011;65824;43.726;20.692;2023-11-21T13:40:31;36.60;;;19.52;;
76850;SDS011;65824;43.726;20.692;2023-11-21T13:42:59;37.13;;;20.73;;
76850;SDS011;65824;43.726;20.692;2023-11-21T13:45:30;34.78;;;20.45;;
76850;SDS011;65824;43.726;20.692;2023-11-21T13:47:56;35.38;;;20.45;;
76850;SDS011;65824;43.726;20.692;2023-11-21T13:50:23;42.03;;;21.60;;
76850;SDS011;65824;43.726;20.692;2023-11-21T13:53:00;34.42;;;20.85;;
76850;SDS011;65824;43.726;20.692;2023-11-21T13:55:50;35.25;;;19.88;;
76850;SDS011;65824;43.726;20.692;2023-11-21T13:58:19;29.55;;;18.63;;
76850;SDS011;65824;43.726;20.692;2023-11-21T14:01:00;32.83;;;18.60;;
76850;SDS011;65824;43.726;20.692;2023-11-21T14:03:31;31.90;;;19.48;;
76850;SDS011;65824;43.726;20.692;2023-11-21T14:06:04;35.35;;;19.90;;
76850;SDS011;65824;43.726;20.692;2023-11-21T14:08:39;34.70;;;20.75;;
76850;SDS011;65824;43.726;20.692;2023-11-21T14:11:07;32.00;;;18.45;;
76850;SDS011;65824;43.726;20.692;2023-11-21T14:13:36;30.67;;;18.52;;
76850;SDS011;65824;43.726;20.692;2023-11-21T14:16:01;31.38;;;18.23;;
76850;SDS011;65824;43.726;20.692;2023-11-21T14:18:27;32.45;;;19.38;;
76850;SDS011;65824;43.726;20.692;2023-11-21T14:21:04;30.08;;;17.27;;
76850;SDS011;65824;43.726;20.692;2023-11-21T14:23:31;30.95;;;17.85;;
76850;SDS011;65824;43.726;20.692;2023-11-21T14:25:58;29.20;;;16.60;;
76850;SDS011;65824;43.726;20.692;2023-11-21T14:28:26;26.70;;;15.35;;
76850;SDS011;65824;43.726;20.692;2023-11-21T14:30:52;23.42;;;14.95;;
76850;SDS011;65824;43.726;20.692;2023-11-21T14:33:19;24.00;;;14.63;;
76850;SDS011;65824;43.726;20.692;2023-11-21T14:35:47;25.23;;;14.68;;